Brutus, New York
Current Conditions -  °F | °C
As of 2:54 AM on Wednesday 26 Nov 2014 (Local Time) from KSYR Reporting Station
Overcast Overcast  
Wind Chill: 32°   Ceiling: 4100
Heat Index: 37°   Visibility: 10mi
Dew Point: 25°   Wind: 7mph
Humidity: 62%   Direction: 240°WSW
Pressure: 30.23"   Gusts: NA
Location:  43.0373°N, 76.55°W
Report Text: KSYR 260754Z 24006KT 10SM OVC041 03/M04 A3023 RMK AO2 SLP236 T00281039
Loading
Personal Weather Stations






























Interactive Weather Map New forecast layout! Learn more

10-Day Weather Forecast

Advertisements
Track Severe Weather on mobile